sensor_id;sensor_type;location;lat;lon;timestamp;pressure;altitude;pressure_sealevel;temperature;humidity
29815;BME280;16708;50.426;7.664;2022-12-11T00:10:23;982.00;;;-1.28;100.00
29815;BME280;16708;50.426;7.664;2022-12-11T00:24:59;982.01;;;-1.26;100.00
29815;BME280;16708;50.426;7.664;2022-12-11T00:39:36;981.93;;;-1.25;100.00
29815;BME280;16708;50.426;7.664;2022-12-11T00:54:13;981.96;;;-1.16;100.00
29815;BME280;16708;50.426;7.664;2022-12-11T01:08:50;982.07;;;-1.14;100.00
29815;BME280;16708;50.426;7.664;2022-12-11T01:23:25;981.98;;;-1.03;100.00
29815;BME280;16708;50.426;7.664;2022-12-11T01:38:00;981.95;;;-1.37;100.00
29815;BME280;16708;50.426;7.664;2022-12-11T01:52:37;981.92;;;-1.34;100.00
29815;BME280;16708;50.426;7.664;2022-12-11T02:07:14;981.76;;;-1.32;100.00
29815;BME280;16708;50.426;7.664;2022-12-11T02:21:50;981.87;;;-1.53;100.00
29815;BME280;16708;50.426;7.664;2022-12-11T02:36:26;981.99;;;-1.28;100.00
29815;BME280;16708;50.426;7.664;2022-12-11T02:51:01;981.82;;;-1.58;100.00
29815;BME280;16708;50.426;7.664;2022-12-11T03:05:37;981.75;;;-1.73;100.00
29815;BME280;16708;50.426;7.664;2022-12-11T03:20:14;981.74;;;-1.67;100.00
29815;BME280;16708;50.426;7.664;2022-12-11T03:34:49;981.74;;;-1.79;100.00
29815;BME280;16708;50.426;7.664;2022-12-11T03:49:26;981.73;;;-1.87;100.00
29815;BME280;16708;50.426;7.664;2022-12-11T04:03:56;981.69;;;-1.78;100.00
29815;BME280;16708;50.426;7.664;2022-12-11T04:18:33;981.64;;;-1.54;100.00
29815;BME280;16708;50.426;7.664;2022-12-11T04:33:09;981.65;;;-1.43;100.00
29815;BME280;16708;50.426;7.664;2022-12-11T04:47:47;981.58;;;-1.43;100.00
29815;BME280;16708;50.426;7.664;2022-12-11T05:02:24;981.64;;;-1.43;100.00
29815;BME280;16708;50.426;7.664;2022-12-11T05:16:59;981.52;;;-1.35;100.00
29815;BME280;16708;50.426;7.664;2022-12-11T05:31:36;981.48;;;-1.33;100.00
29815;BME280;16708;50.426;7.664;2022-12-11T05:46:14;981.39;;;-1.43;100.00
29815;BME280;16708;50.426;7.664;2022-12-11T06:00:41;981.29;;;-1.26;100.00
29815;BME280;16708;50.426;7.664;2022-12-11T06:15:15;981.26;;;-1.26;100.00
29815;BME280;16708;50.426;7.664;2022-12-11T06:29:51;981.31;;;-1.28;100.00
29815;BME280;16708;50.426;7.664;2022-12-11T06:44:28;981.13;;;-1.00;100.00
29815;BME280;16708;50.426;7.664;2022-12-11T06:58:58;981.16;;;-1.52;100.00
29815;BME280;16708;50.426;7.664;2022-12-11T07:13:35;981.24;;;-1.33;100.00
29815;BME280;16708;50.426;7.664;2022-12-11T07:28:10;981.28;;;-1.19;100.00
29815;BME280;16708;50.426;7.664;2022-12-11T07:42:46;981.25;;;-1.14;100.00
29815;BME280;16708;50.426;7.664;2022-12-11T07:57:22;981.40;;;-1.00;100.00
29815;BME280;16708;50.426;7.664;2022-12-11T08:11:54;981.36;;;-0.89;100.00
29815;BME280;16708;50.426;7.664;2022-12-11T08:26:25;981.51;;;-0.93;100.00
29815;BME280;16708;50.426;7.664;2022-12-11T08:40:58;981.43;;;-0.70;100.00
29815;BME280;16708;50.426;7.664;2022-12-11T08:55:34;981.45;;;-0.59;100.00
29815;BME280;16708;50.426;7.664;2022-12-11T09:10:10;981.43;;;-0.23;100.00
29815;BME280;16708;50.426;7.664;2022-12-11T09:24:48;981.42;;;-0.38;100.00
29815;BME280;16708;50.426;7.664;2022-12-11T09:39:25;981.32;;;-0.25;100.00
29815;BME280;16708;50.426;7.664;2022-12-11T09:54:02;981.39;;;-0.18;100.00
29815;BME280;16708;50.426;7.664;2022-12-11T10:08:39;981.23;;;-0.21;100.00
29815;BME280;16708;50.426;7.664;2022-12-11T10:23:18;981.07;;;0.13;100.00
29815;BME280;16708;50.426;7.664;2022-12-11T10:37:49;980.86;;;0.03;100.00
29815;BME280;16708;50.426;7.664;2022-12-11T10:52:27;980.73;;;0.32;100.00
29815;BME280;16708;50.426;7.664;2022-12-11T11:07:04;980.68;;;0.61;100.00
29815;BME280;16708;50.426;7.664;2022-12-11T11:21:43;980.53;;;0.70;100.00
29815;BME280;16708;50.426;7.664;2022-12-11T11:36:14;980.42;;;0.89;100.00
29815;BME280;16708;50.426;7.664;2022-12-11T11:50:50;980.42;;;0.36;100.00
29815;BME280;16708;50.426;7.664;2022-12-11T12:34:40;980.10;;;0.84;100.00
29815;BME280;16708;50.426;7.664;2022-12-11T12:49:17;980.13;;;0.74;100.00
29815;BME280;16708;50.426;7.664;2022-12-11T13:03:54;980.03;;;0.48;100.00
29815;BME280;16708;50.426;7.664;2022-12-11T13:33:07;980.05;;;1.02;100.00
29815;BME280;16708;50.426;7.664;2022-12-11T14:02:18;980.33;;;0.67;100.00
29815;BME280;16708;50.426;7.664;2022-12-11T14:16:45;980.47;;;0.49;100.00
29815;BME280;16708;50.426;7.664;2022-12-11T14:31:22;980.49;;;0.68;100.00
29815;BME280;16708;50.426;7.664;2022-12-11T14:45:57;980.55;;;0.61;100.00
29815;BME280;16708;50.426;7.664;2022-12-11T15:14:56;980.45;;;0.45;100.00
29815;BME280;16708;50.426;7.664;2022-12-11T15:44:02;980.54;;;0.20;100.00
29815;BME280;16708;50.426;7.664;2022-12-11T15:58:39;980.64;;;0.27;100.00
29815;BME280;16708;50.426;7.664;2022-12-11T16:13:15;980.70;;;0.18;100.00
29815;BME280;16708;50.426;7.664;2022-12-11T16:27:51;980.70;;;0.19;100.00
29815;BME280;16708;50.426;7.664;2022-12-11T16:42:22;980.52;;;0.26;100.00
29815;BME280;16708;50.426;7.664;2022-12-11T16:56:58;980.61;;;0.08;100.00
29815;BME280;16708;50.426;7.664;2022-12-11T17:11:29;980.64;;;0.19;100.00
29815;BME280;16708;50.426;7.664;2022-12-11T17:26:08;980.62;;;0.20;100.00
29815;BME280;16708;50.426;7.664;2022-12-11T17:40:42;980.56;;;0.38;100.00
29815;BME280;16708;50.426;7.664;2022-12-11T17:55:18;980.56;;;0.19;100.00
29815;BME280;16708;50.426;7.664;2022-12-11T18:09:55;980.53;;;0.18;100.00
29815;BME280;16708;50.426;7.664;2022-12-11T18:24:30;980.64;;;0.27;100.00
29815;BME280;16708;50.426;7.664;2022-12-11T18:38:59;980.59;;;0.13;100.00
29815;BME280;16708;50.426;7.664;2022-12-11T18:53:31;980.55;;;-0.15;100.00
29815;BME280;16708;50.426;7.664;2022-12-11T19:08:08;980.57;;;-0.62;100.00
29815;BME280;16708;50.426;7.664;2022-12-11T19:22:42;980.60;;;-0.52;100.00
29815;BME280;16708;50.426;7.664;2022-12-11T19:37:19;980.49;;;-0.40;100.00
29815;BME280;16708;50.426;7.664;2022-12-11T19:51:56;980.59;;;-0.40;100.00
29815;BME280;16708;50.426;7.664;2022-12-11T20:06:31;980.61;;;-0.25;100.00
29815;BME280;16708;50.426;7.664;2022-12-11T20:21:08;980.49;;;-0.24;100.00
29815;BME280;16708;50.426;7.664;2022-12-11T20:35:45;980.71;;;0.00;100.00
29815;BME280;16708;50.426;7.664;2022-12-11T20:50:14;980.53;;;-0.26;100.00
29815;BME280;16708;50.426;7.664;2022-12-11T21:04:51;980.50;;;-0.26;100.00
29815;BME280;16708;50.426;7.664;2022-12-11T21:19:25;980.53;;;-0.22;100.00
29815;BME280;16708;50.426;7.664;2022-12-11T21:33:58;980.61;;;-0.06;100.00
29815;BME280;16708;50.426;7.664;2022-12-11T21:48:36;980.66;;;-0.11;100.00
29815;BME280;16708;50.426;7.664;2022-12-11T22:03:12;980.57;;;-0.16;100.00
29815;BME280;16708;50.426;7.664;2022-12-11T22:17:49;980.66;;;-0.12;100.00
29815;BME280;16708;50.426;7.664;2022-12-11T22:32:25;980.83;;;-0.11;100.00
29815;BME280;16708;50.426;7.664;2022-12-11T22:47:00;980.81;;;-0.11;100.00
29815;BME280;16708;50.426;7.664;2022-12-11T23:01:37;980.75;;;-0.16;100.00
29815;BME280;16708;50.426;7.664;2022-12-11T23:16:14;980.74;;;-0.38;100.00
29815;BME280;16708;50.426;7.664;2022-12-11T23:30:50;980.78;;;-0.75;100.00
29815;BME280;16708;50.426;7.664;2022-12-11T23:45:22;981.04;;;-0.65;100.00
29815;BME280;16708;50.426;7.664;2022-12-11T23:59:59;981.09;;;-0.43;100.00
